PWSweather.com
Personal Weather Stations
Station Observations
IPOMMEUS2
PommeuseFR 77515

PommeuseFR 77515

Lat: 48.805, Lon: 3.015

Elevation: 0

Station Type: Oregon Scientific WMRS200

http://meteo.glou-prods.net/

High Low Average
Temperature 59.9°F15.5°C 38.3°F3.5°C 47.4°F8.6°C
Dew Point 43.0°F6.1°C 32.7°F0.4°C 37.9°F3.3°C
Winds 5.8 mph 9.3 kmh 0.2 mph 0.3 kmh 2.0 mph S3.2 kmh S
Wind Gusts 17.1 mph27.5 kmh -- 6.0 mph9.7 kmh
Humidity 98% 38% 72%
Pressure 29.65 in1004.1 mb 29.53 in1000.0 mb -
Precipitation 0.04 in1.0 mm - -
Hour Temp Dew Point Humidity Winds Wind Gusts Pressure Precip Precip Rate Daily Precip Total
12:02 AM 40.5°F4.7°C 37.8°F3.2°C 90% - SE16091.8 kmh SE 1.6 mph2.6 kmh 29.53 in1000.0 mb 0.00 in0.0 mm 0.00 in/hr0.0 mm/hr 0.00 in0.0 mm
12:12 AM 40.8°F4.9°C 38.5°F3.6°C 91% 0.2 mph ESE0.3 kmh ESE 1.6 mph2.6 kmh 29.55 in1000.7 mb 0.00 in0.0 mm 0.00 in/hr0.0 mm/hr 0.00 in0.0 mm
12:22 AM 41.2°F5.1°C 38.8°F3.8°C 91% - E16091.8 kmh E 1.3 mph2.1 kmh 29.56 in1001.0 mb 0.00 in0.0 mm 0.00 in/hr0.0 mm/hr 0.00 in0.0 mm
12:32 AM 41.2°F5.1°C 39.0°F3.9°C 92% - E16091.8 kmh E -- 29.56 in1001.0 mb 0.00 in0.0 mm 0.00 in/hr0.0 mm/hr 0.00 in0.0 mm
12:42 AM 41.2°F5.1°C 39.0°F3.9°C 92% - E16091.8 kmh E 1.1 mph1.8 kmh 29.56 in1001.0 mb 0.00 in0.0 mm 0.00 in/hr0.0 mm/hr 0.00 in0.0 mm
12:52 AM 41.4°F5.2°C 39.2°F4.0°C 92% - SSW16091.8 kmh SSW 3.6 mph5.8 kmh 29.56 in1001.0 mb 0.00 in0.0 mm 0.00 in/hr0.0 mm/hr 0.00 in0.0 mm
01:02 AM 41.7°F5.4°C 39.9°F4.4°C 93% 0.4 mph ESE0.6 kmh ESE 2.0 mph3.2 kmh 29.56 in1001.0 mb 0.00 in0.0 mm 0.00 in/hr0.0 mm/hr 0.00 in0.0 mm
01:12 AM 42.1°F5.6°C 40.5°F4.7°C 94% 0.7 mph ESE1.1 kmh ESE 2.5 mph4.0 kmh 29.58 in1001.7 mb 0.00 in0.0 mm 0.00 in/hr0.0 mm/hr 0.00 in0.0 mm
01:22 AM 42.3°F5.7°C 40.6°F4.8°C 94% 0.7 mph SE1.1 kmh SE 2.7 mph4.3 kmh 29.59 in1002.0 mb 0.00 in0.0 mm 0.00 in/hr0.0 mm/hr 0.00 in0.0 mm
01:32 AM 42.6°F5.9°C 41.4°F5.2°C 95% 0.9 mph SE1.4 kmh SE 2.5 mph4.0 kmh 29.59 in1002.0 mb 0.00 in0.0 mm 0.00 in/hr0.0 mm/hr 0.00 in0.0 mm
01:42 AM 42.8°F6.0°C 41.2°F5.1°C 94% 1.1 mph ESE1.8 kmh ESE 3.4 mph5.5 kmh 29.59 in1002.0 mb 0.00 in0.0 mm 0.00 in/hr0.0 mm/hr 0.00 in0.0 mm
01:52 AM 43.0°F6.1°C 41.2°F5.1°C 93% 1.1 mph SE1.8 kmh SE 2.7 mph4.3 kmh 29.59 in1002.0 mb 0.00 in0.0 mm 0.00 in/hr0.0 mm/hr 0.00 in0.0 mm
02:02 AM 42.8°F6.0°C 41.0°F5.0°C 93% 0.7 mph SE1.1 kmh SE 2.5 mph4.0 kmh 29.59 in1002.0 mb 0.00 in0.0 mm 0.00 in/hr0.0 mm/hr 0.00 in0.0 mm
02:12 AM 42.4°F5.8°C 40.3°F4.6°C 92% - SSE16091.8 kmh SSE 2.5 mph4.0 kmh 29.59 in1002.0 mb 0.00 in0.0 mm 0.00 in/hr0.0 mm/hr 0.00 in0.0 mm
02:22 AM 42.3°F5.7°C 40.1°F4.5°C 92% 0.7 mph ESE1.1 kmh ESE 2.5 mph4.0 kmh 29.59 in1002.0 mb 0.00 in0.0 mm 0.00 in/hr0.0 mm/hr 0.00 in0.0 mm
02:32 AM 41.7°F5.4°C 39.2°F4.0°C 91% 0.2 mph SE0.3 kmh SE 1.3 mph2.1 kmh 29.59 in1002.0 mb 0.00 in0.0 mm 0.00 in/hr0.0 mm/hr 0.00 in0.0 mm
02:42 AM 41.4°F5.2°C 39.0°F3.9°C 91% 0.2 mph SE0.3 kmh SE 1.6 mph2.6 kmh 29.59 in1002.0 mb 0.00 in0.0 mm 0.00 in/hr0.0 mm/hr 0.00 in0.0 mm
02:52 AM 41.2°F5.1°C 38.8°F3.8°C 91% 0.2 mph SE0.3 kmh SE 1.6 mph2.6 kmh 29.59 in1002.0 mb 0.00 in0.0 mm 0.00 in/hr0.0 mm/hr 0.00 in0.0 mm
03:02 AM 40.8°F4.9°C 38.7°F3.7°C 92% 0.4 mph SSE0.6 kmh SSE 2.5 mph4.0 kmh 29.59 in1002.0 mb 0.00 in0.0 mm 0.00 in/hr0.0 mm/hr 0.00 in0.0 mm
03:12 AM 40.5°F4.7°C 38.3°F3.5°C 92% 0.2 mph SE0.3 kmh SE 1.6 mph2.6 kmh 29.59 in1002.0 mb 0.00 in0.0 mm 0.00 in/hr0.0 mm/hr 0.00 in0.0 mm
03:22 AM 40.3°F4.6°C 38.5°F3.6°C 93% 1.3 mph SE2.1 kmh SE 5.6 mph9.0 kmh 29.59 in1002.0 mb 0.00 in0.0 mm 0.00 in/hr0.0 mm/hr 0.00 in0.0 mm
03:32 AM 40.3°F4.6°C 38.7°F3.7°C 94% 0.7 mph SE1.1 kmh SE 4.9 mph7.9 kmh 29.59 in1002.0 mb 0.00 in0.0 mm 0.00 in/hr0.0 mm/hr 0.00 in0.0 mm
03:42 AM 40.1°F4.5°C 38.8°F3.8°C 95% 0.9 mph E1.4 kmh E 2.9 mph4.7 kmh 29.59 in1002.0 mb 0.00 in0.0 mm 0.00 in/hr0.0 mm/hr 0.00 in0.0 mm
03:52 AM 40.1°F4.5°C 38.8°F3.8°C 95% 1.3 mph ESE2.1 kmh ESE 2.9 mph4.7 kmh 29.59 in1002.0 mb 0.00 in0.0 mm 0.00 in/hr0.0 mm/hr 0.00 in0.0 mm
04:02 AM 39.9°F4.4°C 38.7°F3.7°C 95% 1.1 mph SE1.8 kmh SE 2.9 mph4.7 kmh 29.59 in1002.0 mb 0.00 in0.0 mm 0.00 in/hr0.0 mm/hr 0.00 in0.0 mm
04:12 AM 39.7°F4.3°C 38.5°F3.6°C 95% 0.9 mph E1.4 kmh E 3.6 mph5.8 kmh 29.59 in1002.0 mb 0.00 in0.0 mm 0.00 in/hr0.0 mm/hr 0.00 in0.0 mm
04:22 AM 39.7°F4.3°C 38.7°F3.7°C 96% 1.3 mph ESE2.1 kmh ESE 3.8 mph6.1 kmh 29.59 in1002.0 mb 0.00 in0.0 mm 0.00 in/hr0.0 mm/hr 0.00 in0.0 mm
04:32 AM 39.6°F4.2°C 38.3°F3.5°C 95% 0.4 mph ESE0.6 kmh ESE 2.2 mph3.5 kmh 29.59 in1002.0 mb 0.00 in0.0 mm 0.00 in/hr0.0 mm/hr 0.00 in0.0 mm
04:42 AM 39.4°F4.1°C 38.1°F3.4°C 95% 0.4 mph E0.6 kmh E 2.7 mph4.3 kmh 29.59 in1002.0 mb 0.00 in0.0 mm 0.00 in/hr0.0 mm/hr 0.00 in0.0 mm
04:52 AM 39.2°F4.0°C 38.1°F3.4°C 96% 0.7 mph ESE1.1 kmh ESE 2.7 mph4.3 kmh 29.59 in1002.0 mb 0.00 in0.0 mm 0.00 in/hr0.0 mm/hr 0.00 in0.0 mm
05:02 AM 39.2°F4.0°C 38.1°F3.4°C 96% 0.7 mph SE1.1 kmh SE 3.1 mph5.0 kmh 29.59 in1002.0 mb 0.00 in0.0 mm 0.00 in/hr0.0 mm/hr 0.00 in0.0 mm
05:12 AM 38.8°F3.8°C 37.8°F3.2°C 96% 0.2 mph SSE0.3 kmh SSE 2.5 mph4.0 kmh 29.59 in1002.0 mb 0.00 in0.0 mm 0.00 in/hr0.0 mm/hr 0.00 in0.0 mm
05:22 AM 38.7°F3.7°C 37.6°F3.1°C 96% 0.4 mph S0.6 kmh S 1.6 mph2.6 kmh 29.59 in1002.0 mb 0.00 in0.0 mm 0.00 in/hr0.0 mm/hr 0.00 in0.0 mm
05:32 AM 38.5°F3.6°C 37.4°F3.0°C 96% 0.2 mph SSW0.3 kmh SSW 2.0 mph3.2 kmh 29.59 in1002.0 mb 0.00 in0.0 mm 0.00 in/hr0.0 mm/hr 0.00 in0.0 mm
05:42 AM 38.5°F3.6°C 37.8°F3.2°C 97% 0.2 mph SE0.3 kmh SE 3.1 mph5.0 kmh 29.59 in1002.0 mb 0.00 in0.0 mm 0.00 in/hr0.0 mm/hr 0.00 in0.0 mm
05:52 AM 38.5°F3.6°C 37.8°F3.2°C 97% 0.4 mph ESE0.6 kmh ESE 2.5 mph4.0 kmh 29.59 in1002.0 mb 0.00 in0.0 mm 0.00 in/hr0.0 mm/hr 0.00 in0.0 mm
06:02 AM 38.5°F3.6°C 37.8°F3.2°C 97% - SSE16091.8 kmh SSE 2.5 mph4.0 kmh 29.59 in1002.0 mb 0.00 in0.0 mm 0.00 in/hr0.0 mm/hr 0.00 in0.0 mm
06:12 AM 38.3°F3.5°C 37.6°F3.1°C 97% - SSE16091.8 kmh SSE 0.9 mph1.4 kmh 29.61 in1002.7 mb 0.00 in0.0 mm 0.00 in/hr0.0 mm/hr 0.00 in0.0 mm
06:22 AM 38.3°F3.5°C 37.6°F3.1°C 97% - SE16091.8 kmh SE 2.2 mph3.5 kmh 29.62 in1003.0 mb 0.00 in0.0 mm 0.00 in/hr0.0 mm/hr 0.00 in0.0 mm
06:32 AM 38.7°F3.7°C 37.9°F3.3°C 97% 0.2 mph SE0.3 kmh SE 1.6 mph2.6 kmh 29.62 in1003.0 mb 0.00 in0.0 mm 0.00 in/hr0.0 mm/hr 0.00 in0.0 mm
06:42 AM 38.8°F3.8°C 38.3°F3.5°C 98% - E16091.8 kmh E 1.1 mph1.8 kmh 29.62 in1003.0 mb 0.00 in0.0 mm 0.00 in/hr0.0 mm/hr 0.00 in0.0 mm
06:52 AM 39.7°F4.3°C 39.2°F4.0°C 98% 0.7 mph E1.1 kmh E 2.9 mph4.7 kmh 29.62 in1003.0 mb 0.00 in0.0 mm 0.00 in/hr0.0 mm/hr 0.00 in0.0 mm
07:02 AM 40.6°F4.8°C 40.1°F4.5°C 98% 1.6 mph SE2.6 kmh SE 4.9 mph7.9 kmh 29.62 in1003.0 mb 0.00 in0.0 mm 0.00 in/hr0.0 mm/hr 0.00 in0.0 mm
07:12 AM 41.4°F5.2°C 40.8°F4.9°C 98% 2.5 mph S4.0 kmh S 6.7 mph10.8 kmh 29.64 in1003.7 mb 0.00 in0.0 mm 0.00 in/hr0.0 mm/hr 0.00 in0.0 mm
07:22 AM 41.7°F5.4°C 41.2°F5.1°C 98% 2.2 mph SSE3.5 kmh SSE 6.3 mph10.1 kmh 29.65 in1004.1 mb 0.00 in0.0 mm 0.00 in/hr0.0 mm/hr 0.00 in0.0 mm
07:32 AM 42.1°F5.6°C 41.4°F5.2°C 97% 2.5 mph SSW4.0 kmh SSW 6.5 mph10.5 kmh 29.65 in1004.1 mb 0.00 in0.0 mm 0.00 in/hr0.0 mm/hr 0.00 in0.0 mm
07:42 AM 43.2°F6.2°C 42.1°F5.6°C 96% 1.8 mph S2.9 kmh S 4.9 mph7.9 kmh 29.65 in1004.1 mb 0.00 in0.0 mm 0.00 in/hr0.0 mm/hr 0.00 in0.0 mm
07:52 AM 43.9°F6.6°C 41.7°F5.4°C 92% 2.7 mph SW4.3 kmh SW 6.5 mph10.5 kmh 29.63 in1003.4 mb 0.00 in0.0 mm 0.00 in/hr0.0 mm/hr 0.00 in0.0 mm
08:02 AM 44.8°F7.1°C 41.4°F5.2°C 88% 2.2 mph SSW3.5 kmh SSW 5.6 mph9.0 kmh 29.59 in1002.0 mb 0.00 in0.0 mm 0.00 in/hr0.0 mm/hr 0.00 in0.0 mm
08:12 AM 45.7°F7.6°C 41.4°F5.2°C 85% 1.8 mph SSW2.9 kmh SSW 7.2 mph11.6 kmh 29.59 in1002.0 mb 0.00 in0.0 mm 0.00 in/hr0.0 mm/hr 0.00 in0.0 mm
08:22 AM 46.6°F8.1°C 41.0°F5.0°C 81% 1.8 mph S2.9 kmh S 7.4 mph11.9 kmh 29.59 in1002.0 mb 0.00 in0.0 mm 0.00 in/hr0.0 mm/hr 0.00 in0.0 mm
08:32 AM 47.5°F8.6°C 40.6°F4.8°C 77% 3.1 mph SSW5.0 kmh SSW 6.5 mph10.5 kmh 29.59 in1002.0 mb 0.00 in0.0 mm 0.00 in/hr0.0 mm/hr 0.00 in0.0 mm
08:42 AM 48.2°F9.0°C 40.3°F4.6°C 74% 2.7 mph SW4.3 kmh SW 7.6 mph12.2 kmh 29.61 in1002.7 mb 0.00 in0.0 mm 0.00 in/hr0.0 mm/hr 0.00 in0.0 mm
08:52 AM 48.9°F9.4°C 40.3°F4.6°C 72% 3.6 mph SSW5.8 kmh SSW 6.5 mph10.5 kmh 29.61 in1002.7 mb 0.00 in0.0 mm 0.00 in/hr0.0 mm/hr 0.00 in0.0 mm
09:02 AM 49.8°F9.9°C 40.8°F4.9°C 71% 3.1 mph SW5.0 kmh SW 6.1 mph9.8 kmh 29.59 in1002.0 mb 0.00 in0.0 mm 0.00 in/hr0.0 mm/hr 0.00 in0.0 mm
09:12 AM 50.9°F10.5°C 40.6°F4.8°C 68% 3.6 mph SW5.8 kmh SW 8.8 mph14.2 kmh 29.61 in1002.7 mb 0.00 in0.0 mm 0.00 in/hr0.0 mm/hr 0.00 in0.0 mm
09:22 AM 51.1°F10.6°C 39.7°F4.3°C 65% 3.8 mph SW6.1 kmh SW 7.4 mph11.9 kmh 29.62 in1003.0 mb 0.00 in0.0 mm 0.00 in/hr0.0 mm/hr 0.00 in0.0 mm
09:32 AM 52.9°F11.6°C 40.3°F4.6°C 62% 3.1 mph SW5.0 kmh SW 6.5 mph10.5 kmh 29.62 in1003.0 mb 0.00 in0.0 mm 0.00 in/hr0.0 mm/hr 0.00 in0.0 mm
09:42 AM 54.1°F12.3°C 39.7°F4.3°C 58% 3.8 mph SW6.1 kmh SW 8.5 mph13.7 kmh 29.62 in1003.0 mb 0.00 in0.0 mm 0.00 in/hr0.0 mm/hr 0.00 in0.0 mm
09:52 AM 54.7°F12.6°C 39.2°F4.0°C 56% 3.8 mph SSW6.1 kmh SSW 11.0 mph17.7 kmh 29.62 in1003.0 mb 0.00 in0.0 mm 0.00 in/hr0.0 mm/hr 0.00 in0.0 mm
10:02 AM 55.8°F13.2°C 39.4°F4.1°C 54% 2.9 mph WSW4.7 kmh WSW 6.3 mph10.1 kmh 29.62 in1003.0 mb 0.00 in0.0 mm 0.00 in/hr0.0 mm/hr 0.00 in0.0 mm
10:12 AM 55.8°F13.2°C 38.3°F3.5°C 52% 3.1 mph SW5.0 kmh SW 6.3 mph10.1 kmh 29.62 in1003.0 mb 0.00 in0.0 mm 0.00 in/hr0.0 mm/hr 0.00 in0.0 mm
10:22 AM 55.9°F13.3°C 37.0°F2.8°C 49% 3.6 mph SW5.8 kmh SW 10.1 mph16.3 kmh 29.62 in1003.0 mb 0.00 in0.0 mm 0.00 in/hr0.0 mm/hr 0.00 in0.0 mm
10:32 AM 55.0°F12.8°C 36.1°F2.3°C 49% 3.6 mph SW5.8 kmh SW 8.1 mph13.0 kmh 29.62 in1003.0 mb 0.00 in0.0 mm 0.00 in/hr0.0 mm/hr 0.00 in0.0 mm
10:42 AM 55.2°F12.9°C 36.3°F2.4°C 49% 3.6 mph SW5.8 kmh SW 10.5 mph16.9 kmh 29.62 in1003.0 mb 0.00 in0.0 mm 0.00 in/hr0.0 mm/hr 0.00 in0.0 mm
10:52 AM 54.3°F12.4°C 35.1°F1.7°C 48% 3.4 mph SW5.5 kmh SW 8.8 mph14.2 kmh 29.62 in1003.0 mb 0.00 in0.0 mm 0.00 in/hr0.0 mm/hr 0.00 in0.0 mm
11:02 AM 53.6°F12.0°C 34.3°F1.3°C 48% 4.0 mph SW6.4 kmh SW 12.3 mph19.8 kmh 29.62 in1003.0 mb 0.00 in0.0 mm 0.00 in/hr0.0 mm/hr 0.00 in0.0 mm
11:12 AM 53.8°F12.1°C 35.1°F1.7°C 49% 3.6 mph SW5.8 kmh SW 6.5 mph10.5 kmh 29.60 in1002.4 mb 0.00 in0.0 mm 0.00 in/hr0.0 mm/hr 0.00 in0.0 mm
11:22 AM 54.9°F12.7°C 35.6°F2.0°C 48% 4.0 mph SW6.4 kmh SW 7.6 mph12.2 kmh 29.59 in1002.0 mb 0.00 in0.0 mm 0.00 in/hr0.0 mm/hr 0.00 in0.0 mm
11:32 AM 55.8°F13.2°C 35.2°F1.8°C 46% 3.4 mph SW5.5 kmh SW 12.8 mph20.6 kmh 29.59 in1002.0 mb 0.00 in0.0 mm 0.00 in/hr0.0 mm/hr 0.00 in0.0 mm
11:42 AM 54.9°F12.7°C 35.1°F1.7°C 47% 3.1 mph SW5.0 kmh SW 8.5 mph13.7 kmh 29.59 in1002.0 mb 0.00 in0.0 mm 0.00 in/hr0.0 mm/hr 0.00 in0.0 mm
11:52 AM 55.6°F13.1°C 35.6°F2.0°C 47% 4.3 mph SSW6.9 kmh SSW 12.6 mph20.3 kmh 29.60 in1002.4 mb 0.00 in0.0 mm 0.00 in/hr0.0 mm/hr 0.00 in0.0 mm
12:02 PM 57.7°F14.3°C 36.5°F2.5°C 45% 4.5 mph SW7.2 kmh SW 8.8 mph14.2 kmh 29.65 in1004.1 mb 0.00 in0.0 mm 0.00 in/hr0.0 mm/hr 0.00 in0.0 mm
12:12 PM 56.8°F13.8°C 35.8°F2.1°C 45% 4.5 mph SW7.2 kmh SW 13.2 mph21.2 kmh 29.63 in1003.4 mb 0.00 in0.0 mm 0.00 in/hr0.0 mm/hr 0.00 in0.0 mm
12:22 PM 57.6°F14.2°C 36.3°F2.4°C 45% 4.3 mph SW6.9 kmh SW 8.5 mph13.7 kmh 29.62 in1003.0 mb 0.00 in0.0 mm 0.00 in/hr0.0 mm/hr 0.00 in0.0 mm
12:32 PM 58.3°F14.6°C 36.5°F2.5°C 44% 4.3 mph SSW6.9 kmh SSW 10.5 mph16.9 kmh 29.62 in1003.0 mb 0.00 in0.0 mm 0.00 in/hr0.0 mm/hr 0.00 in0.0 mm
12:43 PM 57.2°F14.0°C 36.0°F2.2°C 45% 5.4 mph SW8.7 kmh SW 15.3 mph24.6 kmh 29.62 in1003.0 mb 0.00 in0.0 mm 0.00 in/hr0.0 mm/hr 0.00 in0.0 mm
12:53 PM 53.4°F11.9°C 37.6°F3.1°C 55% 2.7 mph SE4.3 kmh SE 9.4 mph15.1 kmh 29.62 in1003.0 mb 0.00 in0.0 mm 0.00 in/hr0.0 mm/hr 0.00 in0.0 mm
01:03 PM 55.2°F12.9°C 40.6°F4.8°C 58% 2.0 mph SE3.2 kmh SE 5.8 mph9.3 kmh 29.62 in1003.0 mb 0.00 in0.0 mm 0.00 in/hr0.0 mm/hr 0.00 in0.0 mm
01:13 PM 56.1°F13.4°C 37.8°F3.2°C 50% 4.5 mph SSW7.2 kmh SSW 14.4 mph23.2 kmh 29.59 in1002.0 mb 0.00 in0.0 mm 0.00 in/hr0.0 mm/hr 0.00 in0.0 mm
01:23 PM 55.2°F12.9°C 35.2°F1.8°C 47% 4.5 mph SW7.2 kmh SW 13.2 mph21.2 kmh 29.59 in1002.0 mb 0.00 in0.0 mm 0.00 in/hr0.0 mm/hr 0.00 in0.0 mm
01:33 PM 56.3°F13.5°C 37.4°F3.0°C 49% 3.4 mph SSW5.5 kmh SSW 11.9 mph19.2 kmh 29.59 in1002.0 mb 0.00 in0.0 mm 0.00 in/hr0.0 mm/hr 0.00 in0.0 mm
01:43 PM 58.6°F14.8°C 37.4°F3.0°C 45% 3.8 mph SW6.1 kmh SW 15.5 mph24.9 kmh 29.59 in1002.0 mb 0.00 in0.0 mm 0.00 in/hr0.0 mm/hr 0.00 in0.0 mm
01:53 PM 59.9°F15.5°C 36.1°F2.3°C 41% 5.8 mph SW9.3 kmh SW 16.4 mph26.4 kmh 29.59 in1002.0 mb 0.00 in0.0 mm 0.00 in/hr0.0 mm/hr 0.00 in0.0 mm
02:03 PM 58.3°F14.6°C 32.7°F0.4°C 38% 4.9 mph SW7.9 kmh SW 10.8 mph17.4 kmh 29.59 in1002.0 mb 0.00 in0.0 mm 0.00 in/hr0.0 mm/hr 0.00 in0.0 mm
02:13 PM 57.0°F13.9°C 32.9°F0.5°C 40% 4.5 mph SW7.2 kmh SW 15.3 mph24.6 kmh 29.59 in1002.0 mb 0.00 in0.0 mm 0.00 in/hr0.0 mm/hr 0.00 in0.0 mm
02:23 PM 55.0°F12.8°C 34.0°F1.1°C 45% 3.4 mph SW5.5 kmh SW 12.3 mph19.8 kmh 29.59 in1002.0 mb 0.00 in0.0 mm 0.00 in/hr0.0 mm/hr 0.00 in0.0 mm
02:33 PM 52.5°F11.4°C 36.9°F2.7°C 55% 4.7 mph NW7.6 kmh NW 10.5 mph16.9 kmh 29.59 in1002.0 mb 0.00 in0.0 mm 0.00 in/hr0.0 mm/hr 0.00 in0.0 mm
02:43 PM 50.5°F10.3°C 39.2°F4.0°C 65% 3.4 mph SW5.5 kmh SW 7.2 mph11.6 kmh 29.59 in1002.0 mb 0.00 in0.0 mm 0.00 in/hr0.0 mm/hr 0.04 in1.0 mm
02:53 PM 51.6°F10.9°C 41.7°F5.4°C 69% 1.6 mph E2.6 kmh E 4.0 mph6.4 kmh 29.59 in1002.0 mb 0.00 in0.0 mm 0.00 in/hr0.0 mm/hr 0.04 in1.0 mm
03:03 PM 51.8°F11.0°C 41.9°F5.5°C 69% 1.6 mph S2.6 kmh S 4.0 mph6.4 kmh 29.59 in1002.0 mb 0.00 in0.0 mm 0.00 in/hr0.0 mm/hr 0.04 in1.0 mm
03:13 PM 50.7°F10.4°C 40.5°F4.7°C 68% 3.8 mph WNW6.1 kmh WNW 17.1 mph27.5 kmh 29.61 in1002.7 mb 0.00 in0.0 mm 0.00 in/hr0.0 mm/hr 0.04 in1.0 mm
03:23 PM 50.4°F10.2°C 41.4°F5.2°C 71% 1.6 mph SSE2.6 kmh SSE 4.0 mph6.4 kmh 29.61 in1002.7 mb 0.00 in0.0 mm 0.00 in/hr0.0 mm/hr 0.04 in1.0 mm
03:33 PM 52.9°F11.6°C 43.0°F6.1°C 69% 3.4 mph SW5.5 kmh SW 12.1 mph19.5 kmh 29.59 in1002.0 mb 0.00 in0.0 mm 0.00 in/hr0.0 mm/hr 0.04 in1.0 mm
03:43 PM 53.2°F11.8°C 41.4°F5.2°C 64% 3.8 mph SW6.1 kmh SW 8.5 mph13.7 kmh 29.59 in1002.0 mb 0.00 in0.0 mm 0.00 in/hr0.0 mm/hr 0.04 in1.0 mm
03:53 PM 53.2°F11.8°C 41.7°F5.4°C 65% 2.9 mph WSW4.7 kmh WSW 7.0 mph11.3 kmh 29.59 in1002.0 mb 0.00 in0.0 mm 0.00 in/hr0.0 mm/hr 0.04 in1.0 mm
04:03 PM 54.1°F12.3°C 41.4°F5.2°C 62% 4.3 mph SW6.9 kmh SW 7.9 mph12.7 kmh 29.59 in1002.0 mb 0.00 in0.0 mm 0.00 in/hr0.0 mm/hr 0.04 in1.0 mm
04:13 PM 55.4°F13.0°C 39.9°F4.4°C 56% 3.1 mph SW5.0 kmh SW 7.6 mph12.2 kmh 29.59 in1002.0 mb 0.00 in0.0 mm 0.00 in/hr0.0 mm/hr 0.04 in1.0 mm
04:23 PM 55.4°F13.0°C 38.1°F3.4°C 52% 3.6 mph S5.8 kmh S 10.3 mph16.6 kmh 29.59 in1002.0 mb 0.00 in0.0 mm 0.00 in/hr0.0 mm/hr 0.04 in1.0 mm
04:33 PM 55.6°F13.1°C 37.8°F3.2°C 51% 2.9 mph SW4.7 kmh SW 9.0 mph14.5 kmh 29.59 in1002.0 mb 0.00 in0.0 mm 0.00 in/hr0.0 mm/hr 0.04 in1.0 mm
04:43 PM 55.2°F12.9°C 36.9°F2.7°C 50% 4.0 mph SW6.4 kmh SW 10.3 mph16.6 kmh 29.59 in1002.0 mb 0.00 in0.0 mm 0.00 in/hr0.0 mm/hr 0.04 in1.0 mm
04:53 PM 55.4°F13.0°C 36.0°F2.2°C 48% 4.0 mph SW6.4 kmh SW 12.6 mph20.3 kmh 29.59 in1002.0 mb 0.00 in0.0 mm 0.00 in/hr0.0 mm/hr 0.04 in1.0 mm
05:03 PM 54.9°F12.7°C 36.5°F2.5°C 50% 4.3 mph SW6.9 kmh SW 8.1 mph13.0 kmh 29.59 in1002.0 mb 0.00 in0.0 mm 0.00 in/hr0.0 mm/hr 0.04 in1.0 mm
05:13 PM 55.9°F13.3°C 38.1°F3.4°C 51% 3.6 mph SW5.8 kmh SW 9.7 mph15.6 kmh 29.59 in1002.0 mb 0.00 in0.0 mm 0.00 in/hr0.0 mm/hr 0.04 in1.0 mm
05:23 PM 55.6°F13.1°C 37.2°F2.9°C 50% 3.6 mph SW5.8 kmh SW 8.8 mph14.2 kmh 29.59 in1002.0 mb 0.00 in0.0 mm 0.00 in/hr0.0 mm/hr 0.04 in1.0 mm
05:33 PM 54.5°F12.5°C 37.2°F2.9°C 52% 4.0 mph SW6.4 kmh SW 8.5 mph13.7 kmh 29.59 in1002.0 mb 0.00 in0.0 mm 0.00 in/hr0.0 mm/hr 0.04 in1.0 mm
05:43 PM 54.1°F12.3°C 36.9°F2.7°C 52% 4.0 mph SSW6.4 kmh SSW 10.1 mph16.3 kmh 29.59 in1002.0 mb 0.00 in0.0 mm 0.00 in/hr0.0 mm/hr 0.04 in1.0 mm
05:53 PM 53.8°F12.1°C 35.6°F2.0°C 50% 3.8 mph S6.1 kmh S 8.5 mph13.7 kmh 29.59 in1002.0 mb 0.00 in0.0 mm 0.00 in/hr0.0 mm/hr 0.04 in1.0 mm
06:03 PM 53.8°F12.1°C 35.6°F2.0°C 50% 3.1 mph SW5.0 kmh SW 7.4 mph11.9 kmh 29.59 in1002.0 mb 0.00 in0.0 mm 0.00 in/hr0.0 mm/hr 0.04 in1.0 mm
06:13 PM 53.6°F12.0°C 35.4°F1.9°C 50% 2.9 mph SSE4.7 kmh SSE 8.5 mph13.7 kmh 29.59 in1002.0 mb 0.00 in0.0 mm 0.00 in/hr0.0 mm/hr 0.04 in1.0 mm
06:23 PM 52.5°F11.4°C 34.3°F1.3°C 50% 2.9 mph WSW4.7 kmh WSW 6.3 mph10.1 kmh 29.59 in1002.0 mb 0.00 in0.0 mm 0.00 in/hr0.0 mm/hr 0.04 in1.0 mm
06:33 PM 51.6°F10.9°C 35.4°F1.9°C 54% 2.0 mph SW3.2 kmh SW 13.0 mph20.9 kmh 29.59 in1002.0 mb 0.00 in0.0 mm 0.00 in/hr0.0 mm/hr 0.04 in1.0 mm
06:43 PM 51.6°F10.9°C 36.0°F2.2°C 55% 1.8 mph S2.9 kmh S 6.1 mph9.8 kmh 29.59 in1002.0 mb 0.00 in0.0 mm 0.00 in/hr0.0 mm/hr 0.04 in1.0 mm
06:53 PM 52.0°F11.1°C 35.8°F2.1°C 54% 2.2 mph SSW3.5 kmh SSW 5.6 mph9.0 kmh 29.59 in1002.0 mb 0.00 in0.0 mm 0.00 in/hr0.0 mm/hr 0.04 in1.0 mm
07:03 PM 51.8°F11.0°C 35.6°F2.0°C 54% 2.0 mph SSW3.2 kmh SSW 4.7 mph7.6 kmh 29.59 in1002.0 mb 0.00 in0.0 mm 0.00 in/hr0.0 mm/hr 0.04 in1.0 mm
07:13 PM 50.7°F10.4°C 35.1°F1.7°C 55% 2.0 mph S3.2 kmh S 6.1 mph9.8 kmh 29.59 in1002.0 mb 0.00 in0.0 mm 0.00 in/hr0.0 mm/hr 0.04 in1.0 mm
07:23 PM 49.8°F9.9°C 35.6°F2.0°C 58% 2.0 mph S3.2 kmh S 6.1 mph9.8 kmh 29.59 in1002.0 mb 0.00 in0.0 mm 0.00 in/hr0.0 mm/hr 0.04 in1.0 mm
07:33 PM 48.9°F9.4°C 35.6°F2.0°C 60% 1.3 mph SSE2.1 kmh SSE 4.7 mph7.6 kmh 29.59 in1002.0 mb 0.00 in0.0 mm 0.00 in/hr0.0 mm/hr 0.04 in1.0 mm
07:43 PM 48.4°F9.1°C 36.0°F2.2°C 62% 1.3 mph S2.1 kmh S 4.3 mph6.9 kmh 29.59 in1002.0 mb 0.00 in0.0 mm 0.00 in/hr0.0 mm/hr 0.04 in1.0 mm
07:53 PM 47.8°F8.8°C 36.3°F2.4°C 64% 1.6 mph SE2.6 kmh SE 4.7 mph7.6 kmh 29.60 in1002.4 mb 0.00 in0.0 mm 0.00 in/hr0.0 mm/hr 0.04 in1.0 mm
08:03 PM 47.5°F8.6°C 36.3°F2.4°C 65% 1.1 mph SSE1.8 kmh SSE 7.4 mph11.9 kmh 29.62 in1003.0 mb 0.00 in0.0 mm 0.00 in/hr0.0 mm/hr 0.04 in1.0 mm
08:13 PM 46.9°F8.3°C 36.1°F2.3°C 66% 0.4 mph ESE0.6 kmh ESE 2.2 mph3.5 kmh 29.62 in1003.0 mb 0.00 in0.0 mm 0.00 in/hr0.0 mm/hr 0.04 in1.0 mm
08:23 PM 46.2°F7.9°C 36.3°F2.4°C 68% 0.2 mph ESE0.3 kmh ESE 2.2 mph3.5 kmh 29.62 in1003.0 mb 0.00 in0.0 mm 0.00 in/hr0.0 mm/hr 0.04 in1.0 mm
08:33 PM 45.7°F7.6°C 36.1°F2.3°C 69% - SSE16091.8 kmh SSE 2.0 mph3.2 kmh 29.62 in1003.0 mb 0.00 in0.0 mm 0.00 in/hr0.0 mm/hr 0.04 in1.0 mm
08:43 PM 44.8°F7.1°C 36.0°F2.2°C 71% - SSE16091.8 kmh SSE 0.9 mph1.4 kmh 29.62 in1003.0 mb 0.00 in0.0 mm 0.00 in/hr0.0 mm/hr 0.04 in1.0 mm
08:53 PM 43.9°F6.6°C 35.4°F1.9°C 72% - E16091.8 kmh E -- 29.63 in1003.4 mb 0.00 in0.0 mm 0.00 in/hr0.0 mm/hr 0.04 in1.0 mm
09:03 PM 43.0°F6.1°C 35.2°F1.8°C 74% - E16091.8 kmh E -- 29.65 in1004.1 mb 0.00 in0.0 mm 0.00 in/hr0.0 mm/hr 0.04 in1.0 mm
09:13 PM 42.4°F5.8°C 35.1°F1.7°C 75% - E16091.8 kmh E -- 29.65 in1004.1 mb 0.00 in0.0 mm 0.00 in/hr0.0 mm/hr 0.04 in1.0 mm
09:23 PM 42.4°F5.8°C 36.3°F2.4°C 79% 0.9 mph SE1.4 kmh SE 3.1 mph5.0 kmh 29.65 in1004.1 mb 0.00 in0.0 mm 0.00 in/hr0.0 mm/hr 0.04 in1.0 mm
09:33 PM 42.8°F6.0°C 37.0°F2.8°C 80% 0.4 mph SE0.6 kmh SE 2.0 mph3.2 kmh 29.65 in1004.1 mb 0.00 in0.0 mm 0.00 in/hr0.0 mm/hr 0.04 in1.0 mm
09:43 PM 42.8°F6.0°C 37.0°F2.8°C 80% 0.2 mph SE0.3 kmh SE 2.5 mph4.0 kmh 29.60 in1002.4 mb 0.00 in0.0 mm 0.00 in/hr0.0 mm/hr 0.04 in1.0 mm
09:53 PM 43.3°F6.3°C 37.6°F3.1°C 80% 0.2 mph ESE0.3 kmh ESE 2.0 mph3.2 kmh 29.59 in1002.0 mb 0.00 in0.0 mm 0.00 in/hr0.0 mm/hr 0.04 in1.0 mm
10:03 PM 43.5°F6.4°C 37.8°F3.2°C 80% - WSW16091.8 kmh WSW 2.2 mph3.5 kmh 29.59 in1002.0 mb 0.00 in0.0 mm 0.00 in/hr0.0 mm/hr 0.04 in1.0 mm
10:13 PM 43.5°F6.4°C 37.8°F3.2°C 80% 0.2 mph SSE0.3 kmh SSE 2.9 mph4.7 kmh 29.59 in1002.0 mb 0.00 in0.0 mm 0.00 in/hr0.0 mm/hr 0.04 in1.0 mm
10:23 PM 43.0°F6.1°C 37.6°F3.1°C 81% 0.2 mph SSE0.3 kmh SSE 2.0 mph3.2 kmh 29.59 in1002.0 mb 0.00 in0.0 mm 0.00 in/hr0.0 mm/hr 0.04 in1.0 mm
10:33 PM 42.3°F5.7°C 36.5°F2.5°C 80% 0.4 mph NW0.6 kmh NW 2.0 mph3.2 kmh 29.59 in1002.0 mb 0.00 in0.0 mm 0.00 in/hr0.0 mm/hr 0.04 in1.0 mm
10:43 PM 41.7°F5.4°C 36.7°F2.6°C 82% 0.7 mph SSW1.1 kmh SSW 2.9 mph4.7 kmh 29.59 in1002.0 mb 0.00 in0.0 mm 0.00 in/hr0.0 mm/hr 0.04 in1.0 mm
10:53 PM 41.4°F5.2°C 36.5°F2.5°C 83% - SSW16091.8 kmh SSW -- 29.60 in1002.4 mb 0.00 in0.0 mm 0.00 in/hr0.0 mm/hr 0.04 in1.0 mm
11:03 PM 40.6°F4.8°C 36.0°F2.2°C 83% - E16091.8 kmh E 2.0 mph3.2 kmh 29.62 in1003.0 mb 0.00 in0.0 mm 0.00 in/hr0.0 mm/hr 0.00 in0.0 mm
11:13 PM 40.3°F4.6°C 35.8°F2.1°C 84% - E16091.8 kmh E 1.3 mph2.1 kmh 29.62 in1003.0 mb 0.00 in0.0 mm 0.00 in/hr0.0 mm/hr 0.00 in0.0 mm
11:23 PM 40.3°F4.6°C 36.1°F2.3°C 85% - E16091.8 kmh E 1.1 mph1.8 kmh 29.62 in1003.0 mb 0.00 in0.0 mm 0.00 in/hr0.0 mm/hr 0.00 in0.0 mm
11:33 PM 40.1°F4.5°C 36.3°F2.4°C 86% - E16091.8 kmh E 1.1 mph1.8 kmh 29.62 in1003.0 mb 0.00 in0.0 mm 0.00 in/hr0.0 mm/hr 0.00 in0.0 mm
11:43 PM 39.9°F4.4°C 36.3°F2.4°C 87% - E16091.8 kmh E 0.9 mph1.4 kmh 29.62 in1003.0 mb 0.00 in0.0 mm 0.00 in/hr0.0 mm/hr 0.00 in0.0 mm
11:53 PM 39.9°F4.4°C 36.3°F2.4°C 87% - SSE16091.8 kmh SSE 2.0 mph3.2 kmh 29.62 in1003.0 mb 0.00 in0.0 mm 0.00 in/hr0.0 mm/hr 0.00 in0.0 mm